createdAt,value
2023-05-09T00:01:21.665Z,22.73
2023-05-09T00:03:48.550Z,22.77
2023-05-09T00:06:15.541Z,23.27
2023-05-09T00:08:48.683Z,22.40
2023-05-09T00:11:15.445Z,22.42
2023-05-09T00:13:44.128Z,22.45
2023-05-09T00:16:11.579Z,22.33
2023-05-09T00:18:38.413Z,22.37
2023-05-09T00:21:05.259Z,22.23
2023-05-09T00:23:32.212Z,21.70
2023-05-09T00:25:59.779Z,20.90
2023-05-09T00:28:27.419Z,20.80
2023-05-09T00:30:54.237Z,20.77
2023-05-09T00:33:21.159Z,20.65
2023-05-09T00:35:47.938Z,21.58
2023-05-09T00:38:14.867Z,21.42
2023-05-09T00:40:41.734Z,21.50
2023-05-09T00:43:08.667Z,20.83
2023-05-09T00:45:35.804Z,21.23
2023-05-09T00:48:03.220Z,19.88
2023-05-09T00:50:31.192Z,20.38
2023-05-09T00:52:59.044Z,19.35
2023-05-09T00:55:27.297Z,20.17
2023-05-09T00:57:54.176Z,20.65
2023-05-09T01:00:21.509Z,20.55
2023-05-09T01:02:53.510Z,20.40
2023-05-09T01:05:21.303Z,19.98
2023-05-09T01:08:03.299Z,19.87
2023-05-09T01:10:40.648Z,19.55
2023-05-09T01:13:32.196Z,19.73
2023-05-09T01:16:15.445Z,18.67
2023-05-09T01:19:05.152Z,18.75
2023-05-09T01:21:33.399Z,18.73
2023-05-09T01:24:58.637Z,16.92
2023-05-09T01:28:07.814Z,18.10
2023-05-09T01:30:37.708Z,17.83
2023-05-09T01:33:07.863Z,18.25
2023-05-09T01:35:39.733Z,17.70
2023-05-09T01:38:13.691Z,17.00
2023-05-09T01:40:42.580Z,16.83
2023-05-09T01:43:12.179Z,16.52
2023-05-09T01:45:41.406Z,16.88
2023-05-09T01:48:09.695Z,15.13
2023-05-09T01:50:39.493Z,15.95
2023-05-09T01:53:07.302Z,15.73
2023-05-09T01:55:36.917Z,15.65
2023-05-09T01:58:08.020Z,14.93
2023-05-09T02:00:36.509Z,15.90
2023-05-09T02:03:04.858Z,16.08
2023-05-09T02:05:33.196Z,16.25
2023-05-09T02:08:00.210Z,16.05
2023-05-09T02:10:28.176Z,15.88
2023-05-09T02:12:55.557Z,15.50
2023-05-09T02:15:22.916Z,16.83
2023-05-09T02:17:50.765Z,15.35
2023-05-09T02:20:17.803Z,15.73
2023-05-09T02:22:44.927Z,15.18
2023-05-09T02:25:15.503Z,15.20
2023-05-09T02:27:45.825Z,15.27
2023-05-09T02:30:23.404Z,14.85
2023-05-09T02:32:55.223Z,15.57
2023-05-09T02:35:24.935Z,14.85
2023-05-09T02:37:52.529Z,14.63
2023-05-09T02:40:20.511Z,14.32
2023-05-09T02:42:47.855Z,14.43
2023-05-09T02:45:15.948Z,14.35
2023-05-09T02:47:43.243Z,15.10
2023-05-09T02:50:10.603Z,14.57
2023-05-09T02:52:38.487Z,14.70
2023-05-09T02:55:07.450Z,14.10
2023-05-09T02:57:37.605Z,15.65
2023-05-09T03:00:12.090Z,15.32
2023-05-09T03:02:39.744Z,15.77
2023-05-09T03:05:11.591Z,15.75
2023-05-09T03:07:38.496Z,15.23
2023-05-09T03:10:06.218Z,15.82
2023-05-09T03:12:33.069Z,15.32
2023-05-09T03:15:01.234Z,15.43
2023-05-09T03:17:28.818Z,14.35
2023-05-09T03:19:55.745Z,15.60
2023-05-09T03:22:22.592Z,13.80
2023-05-09T03:24:55.714Z,13.57
2023-05-09T03:27:22.811Z,14.33
2023-05-09T03:29:50.531Z,14.45
2023-05-09T03:32:18.930Z,14.68
2023-05-09T03:34:46.382Z,13.45
2023-05-09T03:37:13.322Z,14.25
2023-05-09T03:39:41.323Z,13.63
2023-05-09T03:42:08.241Z,14.55
2023-05-09T03:44:35.071Z,14.27
2023-05-09T03:47:02.013Z,13.90
2023-05-09T03:49:35.305Z,14.48
2023-05-09T03:52:03.586Z,14.00
2023-05-09T03:54:30.830Z,13.85
2023-05-09T03:56:57.765Z,14.25
2023-05-09T03:59:24.551Z,13.80
2023-05-09T04:01:51.576Z,14.48
2023-05-09T04:04:19.217Z,15.07
2023-05-09T04:06:46.858Z,15.50
2023-05-09T04:09:16.259Z,14.82
2023-05-09T04:11:49.165Z,15.68
2023-05-09T04:14:22.796Z,15.48
2023-05-09T04:16:49.797Z,15.13
2023-05-09T04:19:17.593Z,15.50
2023-05-09T04:21:44.384Z,16.30
2023-05-09T04:24:11.630Z,15.45
2023-05-09T04:26:42.546Z,15.35
2023-05-09T04:29:12.658Z,15.67
2023-05-09T04:31:39.874Z,15.75
2023-05-09T04:34:08.758Z,15.65
2023-05-09T04:36:37.795Z,16.23
2023-05-09T04:39:05.366Z,15.70
2023-05-09T04:41:34.386Z,14.90
2023-05-09T04:44:01.967Z,16.00
2023-05-09T04:46:28.847Z,15.85
2023-05-09T04:48:55.747Z,15.60
2023-05-09T04:51:22.617Z,15.43
2023-05-09T04:53:51.868Z,14.67
2023-05-09T04:56:21.890Z,16.08
2023-05-09T04:58:49.283Z,14.50
2023-05-09T05:01:16.778Z,14.23
2023-05-09T05:03:43.953Z,14.90
2023-05-09T05:06:10.774Z,13.87
2023-05-09T05:08:40.295Z,13.70
2023-05-09T05:11:07.122Z,14.18
2023-05-09T05:13:34.234Z,13.65
2023-05-09T05:16:01.847Z,13.90
2023-05-09T05:18:28.822Z,14.53
2023-05-09T05:20:56.180Z,14.30
2023-05-09T05:23:23.737Z,13.45
2023-05-09T05:25:53.498Z,16.13
2023-05-09T05:28:20.854Z,14.25
2023-05-09T05:30:47.638Z,14.13
2023-05-09T05:33:14.456Z,14.45
2023-05-09T05:35:41.457Z,14.00
2023-05-09T05:38:08.465Z,14.65
2023-05-09T05:40:35.534Z,14.02
2023-05-09T05:43:04.546Z,15.37
2023-05-09T05:45:33.224Z,14.40
2023-05-09T05:48:03.171Z,13.73
2023-05-09T05:50:31.658Z,14.32
2023-05-09T05:52:58.882Z,13.80
2023-05-09T05:55:25.805Z,15.37
2023-05-09T05:57:52.939Z,16.58
2023-05-09T06:00:22.506Z,13.98
2023-05-09T06:03:00.261Z,17.40
2023-05-09T06:05:43.121Z,13.50
2023-05-09T06:08:10.675Z,14.57
2023-05-09T06:10:37.515Z,17.10
2023-05-09T06:13:04.445Z,14.75
2023-05-09T06:15:31.327Z,15.65
2023-05-09T06:17:59.086Z,15.73
2023-05-09T06:20:26.185Z,13.13
2023-05-09T06:22:53.951Z,15.07
2023-05-09T06:25:20.913Z,13.23
2023-05-09T06:27:47.748Z,14.52
2023-05-09T06:30:25.630Z,14.73
2023-05-09T06:32:55.067Z,16.30
2023-05-09T06:35:22.693Z,13.23
2023-05-09T06:37:49.774Z,13.52
2023-05-09T06:40:17.155Z,13.25
2023-05-09T06:42:44.864Z,13.85
2023-05-09T06:45:12.518Z,13.20
2023-05-09T06:47:39.403Z,13.85
2023-05-09T06:50:07.111Z,19.25
2023-05-09T06:52:33.934Z,14.13
2023-05-09T06:55:01.162Z,14.57
2023-05-09T06:57:28.117Z,12.40
2023-05-09T06:59:55.079Z,12.40
2023-05-09T07:02:22.028Z,20.08
2023-05-09T07:04:48.987Z,13.43
2023-05-09T07:07:16.434Z,13.85
2023-05-09T07:09:43.550Z,14.60
2023-05-09T07:12:10.535Z,13.13
2023-05-09T07:14:37.389Z,11.02
2023-05-09T07:17:21.097Z,12.65
2023-05-09T07:19:50.740Z,12.95
2023-05-09T07:22:17.594Z,13.60
2023-05-09T07:24:46.373Z,11.20
2023-05-09T07:27:13.892Z,12.68
2023-05-09T07:29:40.970Z,12.38
2023-05-09T07:32:09.296Z,11.60
2023-05-09T07:34:36.621Z,12.90
2023-05-09T07:37:03.709Z,12.85
2023-05-09T07:39:30.509Z,13.00
2023-05-09T07:41:57.462Z,12.55
2023-05-09T07:44:24.366Z,12.50
2023-05-09T07:46:51.213Z,12.70
2023-05-09T07:49:18.048Z,13.73
2023-05-09T07:51:44.869Z,16.58
2023-05-09T07:54:11.863Z,13.70
2023-05-09T07:56:38.902Z,14.18
2023-05-09T07:59:05.771Z,13.33
2023-05-09T08:01:32.531Z,12.13
2023-05-09T08:03:59.558Z,16.65
2023-05-09T08:06:26.658Z,14.07
2023-05-09T08:08:53.470Z,12.93
2023-05-09T08:11:20.257Z,12.17
2023-05-09T08:13:48.165Z,12.38
2023-05-09T08:16:17.395Z,9.68
2023-05-09T08:18:44.895Z,12.55
2023-05-09T08:21:11.948Z,9.73
2023-05-09T08:23:38.834Z,11.67
2023-05-09T08:26:05.754Z,16.05
2023-05-09T08:28:32.625Z,12.10
2023-05-09T08:30:59.475Z,17.60
2023-05-09T08:33:26.383Z,11.02
2023-05-09T08:35:54.045Z,10.73
2023-05-09T08:38:21.370Z,11.25
2023-05-09T08:40:48.567Z,9.88
2023-05-09T08:43:19.223Z,8.77
2023-05-09T08:45:53.275Z,9.55
2023-05-09T08:48:22.593Z,11.17
2023-05-09T08:50:49.976Z,10.88
2023-05-09T08:53:17.008Z,12.45
2023-05-09T08:55:44.447Z,10.75
2023-05-09T08:58:13.051Z,9.23
2023-05-09T09:00:42.007Z,8.40
2023-05-09T09:03:09.368Z,11.98
2023-05-09T09:05:41.975Z,12.18
2023-05-09T09:08:11.048Z,11.10
2023-05-09T09:10:43.309Z,12.68
2023-05-09T09:13:12.559Z,12.33
2023-05-09T09:15:43.797Z,11.07
2023-05-09T09:18:16.207Z,20.95
2023-05-09T09:20:49.765Z,13.38
2023-05-09T09:23:21.193Z,12.90
2023-05-09T09:25:48.296Z,11.20
2023-05-09T09:28:15.607Z,9.18
2023-05-09T09:30:47.552Z,8.05
2023-05-09T09:33:21.702Z,9.25
2023-05-09T09:35:50.481Z,12.18
2023-05-09T09:38:26.832Z,11.57
2023-05-09T09:40:57.161Z,10.93
2023-05-09T09:43:32.971Z,9.57
2023-05-09T09:46:04.838Z,14.45
2023-05-09T09:48:36.399Z,8.73
2023-05-09T09:51:13.795Z,10.00
2023-05-09T09:53:44.012Z,9.60
2023-05-09T09:56:12.278Z,10.45
2023-05-09T09:58:39.692Z,11.27
2023-05-09T10:01:08.783Z,9.00
2023-05-09T10:03:43.768Z,10.03
2023-05-09T10:06:15.301Z,10.77
2023-05-09T10:08:47.273Z,10.98
2023-05-09T10:11:14.494Z,9.38
2023-05-09T10:13:42.555Z,10.23
2023-05-09T10:16:10.653Z,8.23
2023-05-09T10:18:39.659Z,9.48
2023-05-09T10:21:09.578Z,10.23
2023-05-09T10:23:38.958Z,9.60
2023-05-09T10:26:29.237Z,9.07
2023-05-09T10:29:00.045Z,10.87
2023-05-09T10:31:29.270Z,10.25
2023-05-09T10:33:57.121Z,10.25
2023-05-09T10:36:24.865Z,9.45
2023-05-09T10:38:54.040Z,11.35
2023-05-09T10:41:22.111Z,9.90
2023-05-09T10:43:49.323Z,9.23
2023-05-09T10:46:17.181Z,8.32
2023-05-09T10:48:45.122Z,9.30
2023-05-09T10:51:13.113Z,8.23
2023-05-09T10:53:50.928Z,8.57
2023-05-09T10:56:31.818Z,8.75
2023-05-09T10:59:02.158Z,8.05
2023-05-09T11:01:37.944Z,8.23
2023-05-09T11:04:17.140Z,8.40
2023-05-09T11:06:55.714Z,8.70
2023-05-09T11:09:29.206Z,8.80
2023-05-09T11:12:05.171Z,8.25
2023-05-09T11:14:37.286Z,8.98
2023-05-09T11:17:15.062Z,9.30
2023-05-09T11:20:05.465Z,8.20
2023-05-09T11:22:40.438Z,9.82
2023-05-09T11:25:13.180Z,7.57
2023-05-09T11:27:42.613Z,7.72
2023-05-09T11:30:12.021Z,8.15
2023-05-09T11:32:53.426Z,7.27
2023-05-09T11:35:22.228Z,8.50
2023-05-09T11:38:00.038Z,8.73
2023-05-09T11:40:28.294Z,9.25
2023-05-09T11:42:58.711Z,8.57
2023-05-09T11:45:32.244Z,7.80
2023-05-09T11:48:01.629Z,7.82
2023-05-09T11:50:29.391Z,7.63
2023-05-09T11:52:56.372Z,6.82
2023-05-09T11:55:23.356Z,8.45
2023-05-09T11:57:52.470Z,8.23
2023-05-09T12:00:21.423Z,8.77
2023-05-09T12:02:49.213Z,9.80
2023-05-09T12:05:18.797Z,8.85
2023-05-09T12:07:46.939Z,8.48
2023-05-09T12:10:16.044Z,8.50
2023-05-09T12:12:48.104Z,9.13
2023-05-09T12:15:17.057Z,8.93
2023-05-09T12:17:47.139Z,8.77
2023-05-09T12:20:15.275Z,8.65
2023-05-09T12:22:52.895Z,8.63
2023-05-09T12:25:20.497Z,8.00
2023-05-09T12:27:48.055Z,8.60
2023-05-09T12:30:16.681Z,8.63
2023-05-09T12:32:47.637Z,8.70
2023-05-09T12:35:14.876Z,7.53
2023-05-09T12:38:03.870Z,8.98
2023-05-09T12:40:30.773Z,10.10
2023-05-09T12:43:02.911Z,10.05
2023-05-09T12:45:32.351Z,9.32
2023-05-09T12:48:00.876Z,8.43
2023-05-09T12:50:36.788Z,7.68
2023-05-09T12:53:06.928Z,7.20
2023-05-09T12:55:40.602Z,8.45
2023-05-09T12:58:07.802Z,9.43
2023-05-09T13:00:46.902Z,9.47
2023-05-09T13:03:38.179Z,8.40
2023-05-09T13:06:11.170Z,7.82
2023-05-09T13:08:38.924Z,9.23
2023-05-09T13:11:16.546Z,7.45
2023-05-09T13:13:44.916Z,8.70
2023-05-09T13:16:14.041Z,7.93
2023-05-09T13:18:41.737Z,7.43
2023-05-09T13:21:08.554Z,7.22
2023-05-09T13:23:35.418Z,6.38
2023-05-09T13:26:02.285Z,7.43
2023-05-09T13:28:29.228Z,6.50
2023-05-09T13:30:56.194Z,6.95
2023-05-09T13:33:26.289Z,7.43
2023-05-09T13:35:54.458Z,6.07
2023-05-09T13:38:22.129Z,7.50
2023-05-09T13:40:49.967Z,7.63
2023-05-09T13:43:17.800Z,6.72
2023-05-09T13:45:46.612Z,7.60
2023-05-09T13:48:14.071Z,8.02
2023-05-09T13:50:41.674Z,7.90
2023-05-09T13:53:08.826Z,7.53
2023-05-09T13:55:36.304Z,7.53
2023-05-09T13:58:03.542Z,7.00
2023-05-09T14:00:30.625Z,6.75
2023-05-09T14:02:57.642Z,6.53
2023-05-09T14:05:24.774Z,7.50
2023-05-09T14:07:51.843Z,7.25
2023-05-09T14:10:19.108Z,6.05
2023-05-09T14:12:47.459Z,6.03
2023-05-09T14:15:15.553Z,6.60
2023-05-09T14:17:43.873Z,5.82
2023-05-09T14:20:13.955Z,5.05
2023-05-09T14:22:43.094Z,7.13
2023-05-09T14:25:13.185Z,7.03
2023-05-09T14:27:40.314Z,7.47
2023-05-09T14:30:08.694Z,6.47
2023-05-09T14:32:35.675Z,7.13
2023-05-09T14:35:02.847Z,6.97
2023-05-09T14:37:30.324Z,6.82
2023-05-09T14:39:57.154Z,6.23
2023-05-09T14:42:23.989Z,7.00
2023-05-09T14:44:50.877Z,7.38
2023-05-09T14:47:17.668Z,7.68
2023-05-09T14:49:44.585Z,6.70
2023-05-09T14:52:13.652Z,6.87
2023-05-09T14:54:44.888Z,6.60
2023-05-09T14:57:14.394Z,6.30
2023-05-09T14:59:46.034Z,5.95
2023-05-09T15:02:14.503Z,6.00
2023-05-09T15:04:43.989Z,5.80
2023-05-09T15:07:11.927Z,5.15
2023-05-09T15:09:39.003Z,4.90
2023-05-09T15:12:06.181Z,5.50
2023-05-09T15:14:33.209Z,5.68
2023-05-09T15:17:03.547Z,6.00
2023-05-09T15:19:35.839Z,5.82
2023-05-09T15:22:04.667Z,5.38
2023-05-09T15:24:31.593Z,5.90
2023-05-09T15:26:58.336Z,5.97
2023-05-09T15:29:25.261Z,6.00
2023-05-09T15:31:53.805Z,6.20
2023-05-09T15:34:22.916Z,5.95
2023-05-09T15:36:50.010Z,6.30
2023-05-09T15:39:17.402Z,5.70
2023-05-09T15:41:44.360Z,6.20
2023-05-09T15:44:12.103Z,6.65
2023-05-09T15:46:39.122Z,6.40
2023-05-09T15:49:06.212Z,6.85
2023-05-09T15:51:33.022Z,6.90
2023-05-09T15:53:59.960Z,7.10
2023-05-09T15:56:26.887Z,7.60
2023-05-09T15:58:53.869Z,6.93
2023-05-09T16:01:21.272Z,8.00
2023-05-09T16:03:48.299Z,8.10
2023-05-09T16:06:15.210Z,7.97
2023-05-09T16:08:42.535Z,7.28
2023-05-09T16:11:10.285Z,8.50
2023-05-09T16:13:37.590Z,7.60
2023-05-09T16:16:05.275Z,7.85
2023-05-09T16:18:32.304Z,8.17
2023-05-09T16:20:59.769Z,7.65
2023-05-09T16:23:26.677Z,8.38
2023-05-09T16:25:53.521Z,8.02
2023-05-09T16:28:23.458Z,8.18
2023-05-09T16:30:51.342Z,8.43
2023-05-09T16:33:18.502Z,8.48
2023-05-09T16:35:45.728Z,8.68
2023-05-09T16:38:13.260Z,8.55
2023-05-09T16:40:40.234Z,9.52
2023-05-09T16:43:07.373Z,9.67
2023-05-09T16:45:34.348Z,9.00
2023-05-09T16:48:02.321Z,9.48
2023-05-09T16:50:29.462Z,9.65
2023-05-09T16:52:56.766Z,10.18
2023-05-09T16:55:23.928Z,9.87
2023-05-09T16:57:52.170Z,10.30
2023-05-09T17:00:19.866Z,10.27
2023-05-09T17:02:47.362Z,8.73
2023-05-09T17:05:14.352Z,8.57
2023-05-09T17:07:41.431Z,7.73
2023-05-09T17:10:08.630Z,7.82
2023-05-09T17:12:35.471Z,6.50
2023-05-09T17:15:02.310Z,5.32
2023-05-09T17:17:29.167Z,5.40
2023-05-09T17:19:56.160Z,4.70
2023-05-09T17:22:23.429Z,5.20
2023-05-09T17:24:50.900Z,4.32
2023-05-09T17:27:18.004Z,4.60
2023-05-09T17:29:44.922Z,4.75
2023-05-09T17:32:12.955Z,4.33
2023-05-09T17:34:40.847Z,3.92
2023-05-09T17:37:09.568Z,4.32
2023-05-09T17:39:38.321Z,4.28
2023-05-09T17:42:07.267Z,4.22
2023-05-09T17:44:34.611Z,4.40
2023-05-09T17:47:02.234Z,4.07
2023-05-09T17:49:29.962Z,4.00
2023-05-09T17:51:57.055Z,4.70
2023-05-09T17:54:24.692Z,4.53
2023-05-09T17:56:59.163Z,4.67
2023-05-09T17:59:26.277Z,4.68
2023-05-09T18:01:54.664Z,4.90
2023-05-09T18:04:21.896Z,4.80
2023-05-09T18:07:03.184Z,4.80
2023-05-09T18:09:30.266Z,4.90
2023-05-09T18:11:57.539Z,5.30
2023-05-09T18:14:24.752Z,5.18
2023-05-09T18:16:51.746Z,5.43
2023-05-09T18:19:29.138Z,5.00
2023-05-09T18:21:56.372Z,5.60
2023-05-09T18:24:23.489Z,5.78
2023-05-09T18:26:50.626Z,6.40
2023-05-09T18:29:17.571Z,6.43
2023-05-09T18:31:44.810Z,7.05
2023-05-09T18:34:12.261Z,6.60
2023-05-09T18:36:39.264Z,6.65
2023-05-09T18:39:06.218Z,7.15
2023-05-09T18:41:34.333Z,7.05
2023-05-09T18:44:01.596Z,7.15
2023-05-09T18:46:30.047Z,7.60
2023-05-09T18:48:57.089Z,7.68
2023-05-09T18:51:25.276Z,7.85
2023-05-09T18:53:52.395Z,7.75
2023-05-09T18:56:22.523Z,7.28
2023-05-09T18:58:50.274Z,7.93
2023-05-09T19:01:18.305Z,8.02
2023-05-09T19:03:46.130Z,7.88
2023-05-09T19:06:14.081Z,7.63
2023-05-09T19:08:41.985Z,8.05
2023-05-09T19:11:09.453Z,8.17
2023-05-09T19:13:38.523Z,7.82
2023-05-09T19:16:07.028Z,8.30
2023-05-09T19:18:34.693Z,6.35
2023-05-09T19:21:01.854Z,5.65
2023-05-09T19:23:29.018Z,5.13
2023-05-09T19:25:56.856Z,5.10
2023-05-09T19:28:23.764Z,5.13
2023-05-09T19:30:50.805Z,5.15
2023-05-09T19:33:17.865Z,4.93
2023-05-09T19:35:45.137Z,5.13
2023-05-09T19:38:12.097Z,5.30
2023-05-09T19:40:39.781Z,5.18
2023-05-09T19:43:06.833Z,5.15
2023-05-09T19:45:33.762Z,4.72
2023-05-09T19:48:00.803Z,5.07
2023-05-09T19:50:27.871Z,5.10
2023-05-09T19:52:54.889Z,5.07
2023-05-09T19:55:21.774Z,5.43
2023-05-09T19:57:48.862Z,5.10
2023-05-09T20:00:16.475Z,5.67
2023-05-09T20:02:43.653Z,6.55
2023-05-09T20:05:10.497Z,6.72
2023-05-09T20:07:37.405Z,6.30
2023-05-09T20:10:04.714Z,7.53
2023-05-09T20:12:31.984Z,6.90
2023-05-09T20:14:59.134Z,7.38
2023-05-09T20:17:26.078Z,8.13
2023-05-09T20:19:53.006Z,7.13
2023-05-09T20:22:19.865Z,8.30
2023-05-09T20:24:46.764Z,8.23
2023-05-09T20:27:13.724Z,7.97
2023-05-09T20:29:40.699Z,8.40
2023-05-09T20:32:07.719Z,9.10
2023-05-09T20:34:34.648Z,9.27
2023-05-09T20:37:02.301Z,9.67
2023-05-09T20:39:29.372Z,9.95
2023-05-09T20:41:56.228Z,10.48
2023-05-09T20:44:23.290Z,10.25
2023-05-09T20:46:55.805Z,10.65
2023-05-09T20:49:24.657Z,11.37
2023-05-09T20:51:51.628Z,11.55
2023-05-09T20:54:18.550Z,12.18
2023-05-09T20:56:45.431Z,12.05
2023-05-09T20:59:12.294Z,12.90
2023-05-09T21:01:40.423Z,13.07
2023-05-09T21:04:08.372Z,13.65
2023-05-09T21:06:36.286Z,13.57
2023-05-09T21:09:04.356Z,13.77
2023-05-09T21:11:31.292Z,14.85
2023-05-09T21:13:58.183Z,15.53
2023-05-09T21:16:25.108Z,15.73
2023-05-09T21:18:52.045Z,16.27
2023-05-09T21:21:19.040Z,16.92
2023-05-09T21:23:46.071Z,17.42
2023-05-09T21:26:13.382Z,16.97
2023-05-09T21:28:41.209Z,17.10
2023-05-09T21:31:10.448Z,18.25
2023-05-09T21:33:38.292Z,17.63
2023-05-09T21:36:06.258Z,18.13
2023-05-09T21:38:33.155Z,17.63
2023-05-09T21:41:00.022Z,17.73
2023-05-09T21:43:28.528Z,19.10
2023-05-09T21:45:56.035Z,19.27
2023-05-09T21:48:23.093Z,19.40
2023-05-09T21:50:50.030Z,19.43
2023-05-09T21:53:16.936Z,19.90
2023-05-09T21:55:43.820Z,19.20
2023-05-09T21:58:10.988Z,20.17
2023-05-09T22:00:38.124Z,19.33
2023-05-09T22:03:05.228Z,19.13
2023-05-09T22:05:32.334Z,20.48
2023-05-09T22:07:59.322Z,20.02
2023-05-09T22:10:26.372Z,20.73
2023-05-09T22:12:53.452Z,20.52
2023-05-09T22:15:20.299Z,20.10
2023-05-09T22:17:47.074Z,20.75
2023-05-09T22:20:14.051Z,21.90
2023-05-09T22:22:40.933Z,21.50
2023-05-09T22:25:08.166Z,21.95
2023-05-09T22:27:34.973Z,21.87
2023-05-09T22:30:02.800Z,21.05
2023-05-09T22:32:29.699Z,21.73
2023-05-09T22:34:56.920Z,21.65
2023-05-09T22:37:24.005Z,22.52
2023-05-09T22:39:51.211Z,21.67
2023-05-09T22:42:18.159Z,22.25
2023-05-09T22:44:47.108Z,21.85
2023-05-09T22:47:13.994Z,21.58
2023-05-09T22:49:40.829Z,22.30
2023-05-09T22:52:07.870Z,21.80
2023-05-09T22:54:34.606Z,22.45
2023-05-09T22:57:01.502Z,23.08
2023-05-09T22:59:28.452Z,23.23
2023-05-09T23:01:55.390Z,23.48
2023-05-09T23:04:22.236Z,23.33
2023-05-09T23:07:01.294Z,24.60
2023-05-09T23:09:28.611Z,22.85
2023-05-09T23:11:55.708Z,24.23
2023-05-09T23:14:22.799Z,23.58
2023-05-09T23:16:51.011Z,22.40
2023-05-09T23:19:17.853Z,21.90
2023-05-09T23:21:44.759Z,22.95
2023-05-09T23:24:11.624Z,22.17
2023-05-09T23:26:38.362Z,22.98
2023-05-09T23:29:05.222Z,22.50
2023-05-09T23:31:32.130Z,22.65
2023-05-09T23:33:58.983Z,22.77
2023-05-09T23:36:25.910Z,23.45
2023-05-09T23:38:52.748Z,23.35
2023-05-09T23:41:21.933Z,22.33
2023-05-09T23:43:48.887Z,22.50
2023-05-09T23:46:16.102Z,22.58
2023-05-09T23:48:43.407Z,22.90
2023-05-09T23:51:10.449Z,22.52
2023-05-09T23:53:37.296Z,22.40
2023-05-09T23:56:05.104Z,22.75
2023-05-09T23:58:32.014Z,22.33
